Time;durP1;ratioP1;P1;durP2;ratioP2;P2;SDS_P1;SDS_P2;PMS_P1;PMS_P2;Temp;Humidity;BMP_temperature;BMP_pressure;BME280_temperature;BME280_humidity;BME280_pressure;Samples;Min_cycle;Max_cycle;Signal;HPM_P1;HPM_P2
2021/08/27 00:00:59;;;;;;;10.23;3.08;;;11.80;99.90;;;;;;5034470;28;20486;-69
2021/08/27 00:03:25;;;;;;;14.68;2.80;;;11.80;99.90;;;;;;5034454;28;20030;-69
2021/08/27 00:05:50;;;;;;;19.83;3.80;;;11.80;99.90;;;;;;5032971;28;20040;-69
2021/08/27 00:08:16;;;;;;;13.23;3.13;;;11.80;99.90;;;;;;5034405;28;20026;-69
2021/08/27 00:10:41;;;;;;;13.63;3.28;;;11.80;99.90;;;;;;5034316;28;20543;-68
2021/08/27 00:13:09;;;;;;;16.38;3.83;;;11.80;99.90;;;;;;5032763;28;20032;-68
2021/08/27 00:15:34;;;;;;;9.55;2.55;;;11.80;99.90;;;;;;5033120;28;20033;-68
2021/08/27 00:18:00;;;;;;;9.75;2.65;;;11.80;99.90;;;;;;5034157;28;20145;-68
2021/08/27 00:20:26;;;;;;;19.48;3.45;;;11.80;99.90;;;;;;5034226;28;20432;-68
2021/08/27 00:22:51;;;;;;;12.77;3.38;;;11.80;99.90;;;;;;5034185;28;20416;-69
2021/08/27 00:25:16;;;;;;;18.90;3.13;;;11.90;99.90;;;;;;5033636;28;20064;-68
2021/08/27 00:27:42;;;;;;;9.70;3.67;;;11.90;99.90;;;;;;5034150;28;20108;-69
2021/08/27 00:30:08;;;;;;;12.80;2.97;;;11.90;99.90;;;;;;5032679;28;20471;-68
2021/08/27 00:32:34;;;;;;;17.25;3.53;;;11.90;99.90;;;;;;5033938;28;20033;-69
2021/08/27 00:35:03;;;;;;;16.35;3.47;;;12.00;99.90;;;;;;5033769;28;20032;-68
2021/08/27 00:37:29;;;;;;;14.98;2.97;;;12.10;99.90;;;;;;5033302;28;20049;-68
2021/08/27 00:39:54;;;;;;;18.40;3.67;;;12.10;99.90;;;;;;5033997;28;20470;-68
2021/08/27 00:42:20;;;;;;;17.75;3.60;;;12.10;99.90;;;;;;5034004;28;20026;-69
2021/08/27 00:44:46;;;;;;;18.15;3.75;;;12.10;99.90;;;;;;5033419;28;20029;-69
2021/08/27 00:47:11;;;;;;;17.05;3.67;;;12.10;99.90;;;;;;5032468;28;20044;-68
2021/08/27 00:49:37;;;;;;;14.77;3.47;;;12.10;99.90;;;;;;5033920;28;20108;-69
2021/08/27 00:52:04;;;;;;;18.73;3.70;;;12.10;99.90;;;;;;5033616;28;20029;-69
2021/08/27 00:54:29;;;;;;;13.70;3.10;;;12.10;99.90;;;;;;5033592;28;20034;-69
2021/08/27 00:56:55;;;;;;;12.25;3.30;;;12.10;99.90;;;;;;5033537;28;20033;-69
2021/08/27 00:59:20;;;;;;;16.40;3.55;;;12.10;99.90;;;;;;5033543;28;20021;-69
2021/08/27 01:01:46;;;;;;;13.30;3.67;;;12.10;99.90;;;;;;5033827;28;20030;-69
2021/08/27 01:04:12;;;;;;;14.43;3.00;;;12.10;99.90;;;;;;5033770;28;20105;-69
2021/08/27 01:06:42;;;;;;;15.75;3.60;;;12.10;99.90;;;;;;5033781;28;20071;-69
2021/08/27 01:09:27;;;;;;;14.05;3.53;;;12.10;99.90;;;;;;5033456;28;20029;-69
2021/08/27 01:11:59;;;;;;;15.80;4.32;;;12.20;99.90;;;;;;5033171;28;20108;-69
2021/08/27 01:14:36;;;;;;;15.73;3.40;;;12.20;99.90;;;;;;5033693;28;20083;-68
2021/08/27 01:17:14;;;;;;;18.15;3.63;;;12.20;99.90;;;;;;5033575;28;20021;-68
2021/08/27 01:20:09;;;;;;;14.75;4.05;;;12.20;99.90;;;;;;5033633;28;20072;-69
2021/08/27 01:23:02;;;;;;;17.15;3.58;;;12.20;99.90;;;;;;5032939;28;20370;-68
2021/08/27 01:25:30;;;;;;;13.48;3.70;;;12.20;99.90;;;;;;5033499;28;20087;-69
2021/08/27 01:27:57;;;;;;;15.23;4.45;;;12.10;99.90;;;;;;5033560;28;20030;-69
2021/08/27 01:30:48;;;;;;;13.30;3.78;;;12.10;99.90;;;;;;5033557;28;20056;-68
2021/08/27 01:33:19;;;;;;;10.88;3.83;;;12.00;99.90;;;;;;5032908;28;20022;-68
2021/08/27 01:35:50;;;;;;;13.75;4.10;;;11.90;99.90;;;;;;5033211;28;20041;-68
2021/08/27 01:38:18;;;;;;;15.45;4.50;;;11.90;99.90;;;;;;5032675;28;20053;-68
2021/08/27 01:40:51;;;;;;;16.02;4.43;;;11.90;99.90;;;;;;5033442;28;20045;-68
2021/08/27 01:43:18;;;;;;;16.13;4.35;;;11.90;99.90;;;;;;5033408;28;20101;-68
2021/08/27 01:45:47;;;;;;;19.52;4.07;;;11.90;99.90;;;;;;5035619;28;20023;-68
2021/08/27 01:48:14;;;;;;;16.45;3.88;;;11.90;99.90;;;;;;5036936;28;20025;-69
2021/08/27 01:50:42;;;;;;;15.27;3.80;;;11.90;99.90;;;;;;5035161;28;20025;-69
2021/08/27 01:53:08;;;;;;;18.15;4.22;;;11.80;99.90;;;;;;5036327;28;20026;-69
2021/08/27 01:55:34;;;;;;;16.40;4.20;;;11.80;99.90;;;;;;5036820;28;20021;-69
2021/08/27 01:58:02;;;;;;;18.58;4.30;;;11.80;99.90;;;;;;5036715;28;20033;-69
2021/08/27 02:00:28;;;;;;;14.52;4.38;;;11.80;99.90;;;;;;5035284;28;20047;-69
2021/08/27 02:02:54;;;;;;;13.18;4.57;;;11.80;99.90;;;;;;5035136;28;20052;-69
2021/08/27 02:05:21;;;;;;;16.55;4.22;;;11.80;99.90;;;;;;5036355;28;20467;-69
2021/08/27 02:07:48;;;;;;;14.32;4.20;;;11.80;99.90;;;;;;5035211;28;20061;-69
2021/08/27 02:10:14;;;;;;;13.52;4.50;;;11.80;99.90;;;;;;5035162;28;20383;-69
2021/08/27 02:12:40;;;;;;;13.05;4.80;;;11.80;99.90;;;;;;5036532;28;20059;-69
2021/08/27 02:15:06;;;;;;;10.55;3.88;;;11.80;99.90;;;;;;5036508;28;20057;-69
2021/08/27 02:17:32;;;;;;;11.48;4.15;;;11.80;99.90;;;;;;5036356;28;20037;-69
2021/08/27 02:19:59;;;;;;;15.77;4.00;;;11.80;99.90;;;;;;5036437;28;20097;-69
2021/08/27 02:22:28;;;;;;;19.92;4.63;;;11.80;99.90;;;;;;5036393;28;20021;-69
2021/08/27 02:25:06;;;;;;;19.48;4.10;;;11.80;99.90;;;;;;5036333;28;20459;-69
2021/08/27 02:27:33;;;;;;;17.08;4.90;;;11.90;99.90;;;;;;5036253;28;20469;-68
2021/08/27 02:30:01;;;;;;;11.35;3.88;;;11.90;99.90;;;;;;5036191;28;20112;-69
2021/08/27 02:32:27;;;;;;;11.73;3.95;;;11.90;99.90;;;;;;5035883;28;20079;-69
2021/08/27 02:34:58;;;;;;;13.43;4.15;;;11.90;99.90;;;;;;5036101;28;20108;-69
2021/08/27 02:37:26;;;;;;;13.27;4.40;;;11.80;99.90;;;;;;5035978;28;20073;-69
2021/08/27 02:39:51;;;;;;;11.00;4.20;;;11.80;99.90;;;;;;5036032;28;20447;-69
2021/08/27 02:42:18;;;;;;;17.90;4.53;;;11.70;99.90;;;;;;5036013;28;20028;-69
2021/08/27 02:44:44;;;;;;;13.18;4.53;;;11.70;99.90;;;;;;5034124;28;20104;-69
2021/08/27 02:47:09;;;;;;;11.63;4.55;;;11.60;99.90;;;;;;5035307;28;20104;-69
2021/08/27 02:49:36;;;;;;;19.52;5.28;;;11.50;99.90;;;;;;5034433;28;20029;-69
2021/08/27 02:52:09;;;;;;;17.08;5.18;;;11.60;99.90;;;;;;5034631;28;20448;-69
2021/08/27 02:54:47;;;;;;;21.98;5.75;;;11.60;99.90;;;;;;5035519;28;20029;-69
2021/08/27 02:57:13;;;;;;;18.92;4.72;;;11.60;99.90;;;;;;5033834;28;20033;-69
2021/08/27 02:59:39;;;;;;;16.70;5.10;;;11.60;99.90;;;;;;5035661;28;20032;-69
2021/08/27 03:02:07;;;;;;;16.33;4.88;;;11.60;99.90;;;;;;5035618;28;20021;-69
2021/08/27 03:04:47;;;;;;;15.40;4.75;;;11.70;99.90;;;;;;5035548;28;20018;-69
2021/08/27 03:07:16;;;;;;;17.27;5.10;;;11.70;99.90;;;;;;5035517;28;20095;-69
2021/08/27 03:10:05;;;;;;;17.02;5.68;;;11.70;99.90;;;;;;5035452;28;20028;-69
2021/08/27 03:12:54;;;;;;;17.65;5.63;;;11.70;99.90;;;;;;5034138;28;20131;-69
2021/08/27 03:15:27;;;;;;;20.83;5.60;;;11.80;99.90;;;;;;5034773;28;20029;-69
2021/08/27 03:17:55;;;;;;;19.75;5.95;;;11.80;99.90;;;;;;5034965;28;20017;-68
2021/08/27 03:20:26;;;;;;;23.27;5.35;;;11.90;99.90;;;;;;5034688;28;20021;-68
2021/08/27 03:22:59;;;;;;;15.68;4.43;;;11.90;99.90;;;;;;5035199;28;20025;-69
2021/08/27 03:25:27;;;;;;;20.17;5.22;;;11.90;99.90;;;;;;5035191;28;20025;-68
2021/08/27 03:28:01;;;;;;;18.02;5.28;;;12.00;99.90;;;;;;5035067;28;20026;-69
2021/08/27 03:30:29;;;;;;;15.00;5.18;;;12.00;99.90;;;;;;5033595;28;20424;-69
2021/08/27 03:32:59;;;;;;;15.48;4.82;;;12.00;99.90;;;;;;5034706;28;20029;-69
2021/08/27 03:35:26;;;;;;;18.83;5.40;;;12.10;99.90;;;;;;5034613;28;20071;-69
2021/08/27 03:37:54;;;;;;;16.58;4.55;;;12.10;99.90;;;;;;5034839;28;20077;-69
2021/08/27 03:40:21;;;;;;;13.65;4.88;;;12.10;99.90;;;;;;5034865;28;20367;-68
2021/08/27 03:42:47;;;;;;;12.88;4.72;;;12.10;99.90;;;;;;5034526;28;20018;-69
2021/08/27 03:45:15;;;;;;;21.23;5.22;;;12.10;99.90;;;;;;5034671;28;20026;-69
2021/08/27 03:47:43;;;;;;;16.08;4.35;;;12.20;99.90;;;;;;5034433;28;20021;-69
2021/08/27 03:50:10;;;;;;;16.13;4.85;;;12.20;99.90;;;;;;5034692;28;20039;-69
2021/08/27 03:52:37;;;;;;;17.20;4.40;;;12.20;99.90;;;;;;5034105;28;20471;-69
2021/08/27 03:55:04;;;;;;;11.30;4.35;;;12.20;99.90;;;;;;5034602;28;20026;-69
2021/08/27 03:57:30;;;;;;;14.85;4.28;;;12.20;99.90;;;;;;5034456;28;20040;-69
2021/08/27 03:59:58;;;;;;;14.70;4.60;;;12.30;99.90;;;;;;5034519;28;20021;-69
2021/08/27 04:02:26;;;;;;;14.27;4.90;;;12.20;99.90;;;;;;5033893;28;20021;-69
2021/08/27 04:05:07;;;;;;;14.30;4.65;;;12.20;99.90;;;;;;5034437;28;20021;-68
2021/08/27 04:07:32;;;;;;;12.32;4.72;;;12.20;99.90;;;;;;5033772;28;20072;-69
2021/08/27 04:09:58;;;;;;;14.38;4.50;;;12.20;99.90;;;;;;5034156;28;20057;-69
2021/08/27 04:12:23;;;;;;;10.02;4.60;;;12.20;99.90;;;;;;5034334;28;20486;-69
2021/08/27 04:14:49;;;;;;;11.57;4.47;;;12.30;99.90;;;;;;5034305;28;20479;-69
2021/08/27 04:17:14;;;;;;;13.23;4.50;;;12.20;99.90;;;;;;5033954;28;20029;-69
2021/08/27 04:19:40;;;;;;;11.95;4.75;;;12.20;99.90;;;;;;5034245;28;20363;-69
2021/08/27 04:22:05;;;;;;;14.80;4.70;;;12.10;99.90;;;;;;5034207;28;20471;-69
2021/08/27 04:24:31;;;;;;;17.67;5.30;;;12.00;99.90;;;;;;5034196;28;20021;-69
2021/08/27 04:26:56;;;;;;;16.00;4.90;;;11.90;99.90;;;;;;5034155;28;20029;-68
2021/08/27 04:29:22;;;;;;;16.05;5.82;;;11.80;99.90;;;;;;5033827;28;20052;-69
2021/08/27 04:31:47;;;;;;;16.02;5.25;;;11.80;99.90;;;;;;5034090;28;20382;-69
2021/08/27 04:34:13;;;;;;;16.33;5.50;;;11.80;99.90;;;;;;5034069;28;20034;-69
2021/08/27 04:36:38;;;;;;;13.35;5.85;;;11.70;99.90;;;;;;5033258;28;20057;-69
2021/08/27 04:39:04;;;;;;;21.88;5.88;;;11.80;99.90;;;;;;5034033;28;20033;-69
2021/08/27 04:41:29;;;;;;;16.08;6.43;;;11.80;99.90;;;;;;5033990;28;20029;-69
2021/08/27 04:43:55;;;;;;;18.80;6.50;;;11.80;99.90;;;;;;5034000;28;20478;-69
2021/08/27 04:46:20;;;;;;;14.95;6.40;;;11.90;99.90;;;;;;5033405;28;20057;-68
2021/08/27 04:48:46;;;;;;;14.63;7.03;;;11.90;99.90;;;;;;5033926;28;20100;-69
2021/08/27 04:51:11;;;;;;;18.65;6.15;;;11.90;99.90;;;;;;5033883;28;20033;-69
2021/08/27 04:53:39;;;;;;;22.40;7.07;;;11.90;99.90;;;;;;5033637;28;20034;-69
2021/08/27 04:56:05;;;;;;;20.33;7.40;;;11.90;99.90;;;;;;5032888;28;20333;-69
2021/08/27 04:58:30;;;;;;;19.15;6.80;;;12.00;99.90;;;;;;5033451;28;20037;-69
2021/08/27 05:00:56;;;;;;;16.17;7.43;;;12.00;99.90;;;;;;5032367;28;20163;-69
2021/08/27 05:03:21;;;;;;;22.90;7.85;;;12.10;99.90;;;;;;5033764;28;20453;-68
2021/08/27 05:05:47;;;;;;;25.17;8.50;;;12.10;99.90;;;;;;5033771;28;20079;-68
2021/08/27 05:08:12;;;;;;;23.15;7.90;;;12.10;99.90;;;;;;5033768;28;20030;-69
2021/08/27 05:10:38;;;;;;;21.45;7.65;;;12.20;99.90;;;;;;5033708;28;20032;-69
2021/08/27 05:13:03;;;;;;;17.27;7.45;;;12.20;99.90;;;;;;5033664;28;20078;-69
2021/08/27 05:15:29;;;;;;;13.85;6.40;;;12.20;99.90;;;;;;5033423;28;20129;-69
2021/08/27 05:17:55;;;;;;;16.25;7.05;;;12.20;99.90;;;;;;5033282;28;20099;-69
2021/08/27 05:20:20;;;;;;;17.17;7.15;;;12.20;99.90;;;;;;5035922;28;20093;-69
2021/08/27 05:22:46;;;;;;;15.70;7.78;;;12.20;99.90;;;;;;5037207;28;20040;-69
2021/08/27 05:25:11;;;;;;;17.35;7.22;;;12.30;99.90;;;;;;5037118;28;20115;-68
2021/08/27 05:27:38;;;;;;;17.40;8.30;;;12.30;99.90;;;;;;5037370;28;20383;-69
2021/08/27 05:30:07;;;;;;;16.60;8.05;;;12.40;99.90;;;;;;5037053;28;20034;-69
2021/08/27 05:32:32;;;;;;;19.08;8.07;;;12.40;99.90;;;;;;5037284;28;20064;-69
2021/08/27 05:34:58;;;;;;;22.80;8.48;;;12.50;99.90;;;;;;5037259;28;20407;-69
2021/08/27 05:37:24;;;;;;;16.40;7.55;;;12.50;99.90;;;;;;5036578;28;20049;-69
2021/08/27 05:39:50;;;;;;;20.08;7.13;;;12.60;99.90;;;;;;5036890;28;20057;-69
2021/08/27 05:42:16;;;;;;;20.48;7.57;;;12.60;99.90;;;;;;5036792;28;20072;-69
2021/08/27 05:44:41;;;;;;;19.13;7.00;;;12.70;99.90;;;;;;5036781;28;20025;-69
2021/08/27 05:47:07;;;;;;;14.05;6.30;;;12.80;99.90;;;;;;5035884;28;20399;-69
2021/08/27 05:49:34;;;;;;;16.70;6.28;;;12.80;99.90;;;;;;5036961;28;20148;-69
2021/08/27 05:52:00;;;;;;;13.32;6.45;;;13.00;99.90;;;;;;5036656;28;20449;-69
2021/08/27 05:54:25;;;;;;;14.32;6.25;;;13.10;99.90;;;;;;5035412;28;20056;-69
2021/08/27 05:56:51;;;;;;;15.27;6.43;;;13.10;99.90;;;;;;5035271;28;20029;-69
2021/08/27 05:59:16;;;;;;;13.45;5.90;;;13.20;99.90;;;;;;5036633;28;20104;-70
2021/08/27 06:01:42;;;;;;;15.38;5.80;;;13.20;99.90;;;;;;5035758;28;20032;-69
2021/08/27 06:04:07;;;;;;;17.95;6.32;;;13.30;99.90;;;;;;5019037;28;20034;-69
2021/08/27 06:06:34;;;;;;;16.70;5.78;;;13.50;99.90;;;;;;5035438;28;20475;-69
2021/08/27 06:09:00;;;;;;;16.02;5.55;;;13.70;99.90;;;;;;5035168;28;20038;-69
2021/08/27 06:11:25;;;;;;;16.95;4.20;;;13.80;99.90;;;;;;5036293;28;20552;-70
2021/08/27 06:13:51;;;;;;;9.75;4.20;;;14.20;99.90;;;;;;5036271;28;20497;-69
2021/08/27 06:16:16;;;;;;;10.77;3.58;;;15.60;99.90;;;;;;5036506;28;20548;-69
2021/08/27 06:18:42;;;;;;;9.43;3.50;;;16.00;99.90;;;;;;5036380;28;20033;-69
2021/08/27 06:21:07;;;;;;;10.32;3.45;;;16.00;99.90;;;;;;5036407;28;20490;-69
2021/08/27 06:23:33;;;;;;;14.13;3.53;;;15.60;99.90;;;;;;5035731;28;20053;-69
2021/08/27 06:25:59;;;;;;;9.63;3.65;;;15.20;99.90;;;;;;5035961;28;20044;-69
2021/08/27 06:28:24;;;;;;;6.40;3.45;;;15.30;99.90;;;;;;5034432;28;20026;-69
2021/08/27 06:30:50;;;;;;;7.38;2.95;;;16.20;99.90;;;;;;5034509;28;20032;-69
2021/08/27 06:33:16;;;;;;;8.73;3.95;;;17.10;99.90;;;;;;5033012;28;20383;-69
2021/08/27 06:35:41;;;;;;;13.32;3.63;;;16.30;99.90;;;;;;5078388;28;20025;-69
2021/08/27 06:38:25;;;;;;;10.35;3.30;;;17.00;99.90;;;;;;5034022;28;20041;-69
2021/08/27 06:40:58;;;;;;;12.88;2.72;;;16.80;99.90;;;;;;5032224;28;20870;-68
2021/08/27 06:43:27;;;;;;;9.68;3.25;;;16.40;99.90;;;;;;5035412;28;20482;-68
2021/08/27 06:45:54;;;;;;;13.75;3.40;;;15.80;99.90;;;;;;5035208;28;20029;-69
2021/08/27 06:48:20;;;;;;;8.93;3.13;;;15.50;99.90;;;;;;5034374;28;20052;-69
2021/08/27 06:50:46;;;;;;;11.50;3.63;;;15.30;99.90;;;;;;5034331;28;20706;-69
2021/08/27 06:53:12;;;;;;;9.02;3.13;;;15.20;99.90;;;;;;5046291;28;20029;-69
2021/08/27 06:55:37;;;;;;;9.05;3.50;;;15.00;99.90;;;;;;5049485;28;20103;-69
2021/08/27 06:58:03;;;;;;;12.52;4.28;;;15.00;99.90;;;;;;5052971;28;20467;-69
2021/08/27 07:00:29;;;;;;;9.77;3.55;;;15.00;99.90;;;;;;5037311;28;20530;-69
2021/08/27 07:02:55;;;;;;;10.77;3.90;;;15.00;99.90;;;;;;5053187;28;20363;-69
2021/08/27 07:05:21;;;;;;;13.98;5.45;;;15.00;99.90;;;;;;5046944;28;20028;-69
2021/08/27 07:07:46;;;;;;;10.07;3.72;;;15.10;99.90;;;;;;5032070;28;20099;-69
2021/08/27 07:10:13;;;;;;;11.13;4.28;;;15.20;99.90;;;;;;5032071;28;20108;-69
2021/08/27 07:12:39;;;;;;;10.55;4.03;;;15.20;99.90;;;;;;5035688;28;20033;-69
2021/08/27 07:15:06;;;;;;;10.15;3.45;;;15.20;99.90;;;;;;5035181;28;20051;-69
2021/08/27 07:17:31;;;;;;;11.50;4.53;;;15.20;99.90;;;;;;5045895;28;20474;-69
2021/08/27 07:19:57;;;;;;;10.32;3.72;;;15.20;99.90;;;;;;5026668;28;20029;-69
2021/08/27 07:22:22;;;;;;;11.85;4.10;;;15.10;99.90;;;;;;5033586;28;20014;-69
2021/08/27 07:24:48;;;;;;;9.93;3.90;;;15.10;99.90;;;;;;5033521;28;20518;-69
2021/08/27 07:27:13;;;;;;;14.13;4.38;;;15.10;99.90;;;;;;5029723;28;20033;-69
2021/08/27 07:29:39;;;;;;;12.52;4.18;;;15.20;99.90;;;;;;5033459;28;20029;-69
2021/08/27 07:32:06;;;;;;;12.82;4.07;;;15.30;99.90;;;;;;5031711;28;20034;-69
2021/08/27 07:34:32;;;;;;;10.00;3.80;;;15.50;99.90;;;;;;5033445;28;20032;-69
2021/08/27 07:36:58;;;;;;;9.55;3.92;;;15.70;99.90;;;;;;5027868;28;20049;-69
2021/08/27 07:39:24;;;;;;;11.10;3.65;;;15.80;99.90;;;;;;5025405;28;20025;-69
2021/08/27 07:41:49;;;;;;;8.05;3.42;;;16.10;99.90;;;;;;5035816;28;20027;-69
2021/08/27 07:44:15;;;;;;;12.10;4.53;;;16.30;99.90;;;;;;5049395;28;20029;-69
2021/08/27 07:46:40;;;;;;;11.88;3.50;;;16.70;99.90;;;;;;5030040;28;20030;-69
2021/08/27 07:49:06;;;;;;;12.43;3.22;;;17.10;99.90;;;;;;5065137;28;20043;-69
2021/08/27 07:51:31;;;;;;;10.20;3.28;;;17.70;99.90;;;;;;5032133;28;20032;-69
2021/08/27 07:53:57;;;;;;;10.48;3.35;;;17.70;99.90;;;;;;5032978;28;20035;-69
2021/08/27 07:56:22;;;;;;;6.97;2.97;;;17.40;99.90;;;;;;5033332;28;20021;-69
2021/08/27 07:58:48;;;;;;;8.48;2.97;;;17.40;99.90;;;;;;5065134;28;20540;-69
2021/08/27 08:01:13;;;;;;;9.63;3.28;;;17.40;99.90;;;;;;5041098;28;20020;-69
2021/08/27 08:03:39;;;;;;;8.35;3.25;;;17.10;99.90;;;;;;5035620;28;20043;-69
2021/08/27 08:06:04;;;;;;;9.85;3.13;;;17.20;99.90;;;;;;5040799;28;20077;-69
2021/08/27 08:08:30;;;;;;;11.40;3.00;;;17.00;99.90;;;;;;5034046;28;20036;-69
2021/08/27 08:10:55;;;;;;;8.05;2.83;;;16.80;99.90;;;;;;5031466;28;20029;-69
2021/08/27 08:13:22;;;;;;;6.03;2.90;;;16.70;99.90;;;;;;5034204;28;20048;-69
2021/08/27 08:15:47;;;;;;;7.97;2.70;;;16.80;99.90;;;;;;5032880;28;20017;-69
2021/08/27 08:18:13;;;;;;;9.48;2.80;;;17.00;99.90;;;;;;5033593;28;20036;-69
2021/08/27 08:20:38;;;;;;;8.52;2.40;;;17.20;99.90;;;;;;5033241;28;20049;-69
2021/08/27 08:23:04;;;;;;;5.88;2.55;;;17.10;99.90;;;;;;5032042;28;20048;-69
2021/08/27 08:25:30;;;;;;;5.88;2.53;;;17.20;99.90;;;;;;5031820;28;20025;-69
2021/08/27 08:27:55;;;;;;;4.40;2.10;;;17.70;99.90;;;;;;5033807;28;20087;-69
2021/08/27 08:30:21;;;;;;;6.40;2.33;;;17.60;99.90;;;;;;5033193;28;20390;-69
2021/08/27 08:32:47;;;;;;;8.88;2.70;;;17.40;99.90;;;;;;5033150;28;20112;-69
2021/08/27 08:35:12;;;;;;;8.45;2.40;;;17.40;99.90;;;;;;5031515;28;20045;-69
2021/08/27 08:37:39;;;;;;;9.88;2.80;;;17.10;99.90;;;;;;5031015;28;20040;-68
2021/08/27 08:40:05;;;;;;;7.93;2.38;;;17.20;99.90;;;;;;5031384;28;20022;-69
2021/08/27 08:42:31;;;;;;;8.23;2.70;;;17.10;99.90;;;;;;5062978;28;20084;-70
2021/08/27 08:44:56;;;;;;;7.25;2.20;;;17.00;99.90;;;;;;5030371;28;20033;-68
2021/08/27 08:47:24;;;;;;;5.88;2.38;;;16.90;99.90;;;;;;5026390;28;20033;-69
2021/08/27 08:49:51;;;;;;;9.52;2.83;;;16.80;99.90;;;;;;5028046;28;20026;-69
2021/08/27 08:52:21;;;;;;;8.15;2.83;;;16.60;99.90;;;;;;5048666;28;20108;-69
2021/08/27 08:54:49;;;;;;;11.13;3.45;;;16.20;99.90;;;;;;5034814;28;20427;-69
2021/08/27 08:57:15;;;;;;;26.58;9.38;;;15.80;99.90;;;;;;5036536;28;20030;-68
2021/08/27 08:59:41;;;;;;;11.48;4.43;;;15.70;99.90;;;;;;5031464;28;20459;-68
2021/08/27 09:02:09;;;;;;;8.80;3.92;;;15.60;99.90;;;;;;5034631;28;20036;-69
2021/08/27 09:04:34;;;;;;;11.52;3.97;;;15.90;99.90;;;;;;5035759;28;20026;-69
2021/08/27 09:07:00;;;;;;;7.40;3.03;;;16.40;99.90;;;;;;5036730;28;20033;-69
2021/08/27 09:09:30;;;;;;;15.10;3.00;;;18.00;99.90;;;;;;5033591;28;20124;-69
2021/08/27 09:11:56;;;;;;;8.13;3.20;;;18.70;99.90;;;;;;5035963;28;20040;-69
2021/08/27 09:14:28;;;;;;;9.32;2.72;;;19.50;99.90;;;;;;5049682;28;20041;-69
2021/08/27 09:17:03;;;;;;;6.72;2.55;;;19.00;99.90;;;;;;5036202;28;20448;-69
2021/08/27 09:19:50;;;;;;;7.97;2.75;;;19.20;99.90;;;;;;5034980;28;20013;-69
2021/08/27 09:22:15;;;;;;;6.70;2.08;;;18.60;99.90;;;;;;5032019;28;20498;-69
2021/08/27 09:24:41;;;;;;;4.90;2.00;;;18.50;99.90;;;;;;5031146;28;20026;-69
2021/08/27 09:27:07;;;;;;;6.25;2.03;;;18.40;99.90;;;;;;5034571;28;20163;-69
2021/08/27 09:29:48;;;;;;;7.80;2.40;;;18.50;99.90;;;;;;5035690;28;20108;-69
2021/08/27 09:32:25;;;;;;;7.97;2.20;;;19.10;99.90;;;;;;5035531;28;20045;-69
2021/08/27 09:35:18;;;;;;;6.40;2.00;;;19.40;99.90;;;;;;5035696;28;20021;-70
2021/08/27 09:37:53;;;;;;;7.03;1.77;;;19.40;99.90;;;;;;5031158;28;20046;-70
2021/08/27 09:40:23;;;;;;;4.15;2.20;;;19.20;99.90;;;;;;5035860;28;20030;-70
2021/08/27 09:42:50;;;;;;;7.07;2.10;;;18.60;99.90;;;;;;5033821;28;20456;-70
2021/08/27 09:45:18;;;;;;;7.68;2.00;;;18.40;99.90;;;;;;5034471;28;20049;-70
2021/08/27 09:48:02;;;;;;;4.38;2.00;;;18.60;99.90;;;;;;5024868;28;20025;-70
2021/08/27 09:50:32;;;;;;;9.60;2.33;;;18.70;99.90;;;;;;5035023;28;20026;-70
2021/08/27 09:53:01;;;;;;;3.40;1.90;;;18.90;99.90;;;;;;5036075;28;20021;-70
2021/08/27 09:55:28;;;;;;;3.67;1.70;;;18.90;99.90;;;;;;5035910;28;20104;-70
2021/08/27 09:58:03;;;;;;;4.63;2.17;;;18.80;99.90;;;;;;5034765;28;20029;-68
2021/08/27 10:00:29;;;;;;;4.90;2.13;;;18.40;99.90;;;;;;5035721;28;20426;-70
2021/08/27 10:02:56;;;;;;;8.02;2.17;;;18.00;99.90;;;;;;5033966;28;20025;-70
2021/08/27 10:05:37;;;;;;;7.55;2.10;;;17.60;99.90;;;;;;5029699;28;20021;-70
2021/08/27 10:08:22;;;;;;;4.10;2.10;;;17.30;99.90;;;;;;5034602;28;20467;-69
2021/08/27 10:10:50;;;;;;;7.68;2.55;;;17.50;99.90;;;;;;5068083;28;20034;-70
2021/08/27 10:13:16;;;;;;;7.55;1.90;;;18.30;99.90;;;;;;5035556;28;20056;-70
2021/08/27 10:15:42;;;;;;;5.00;1.60;;;19.60;99.90;;;;;;5035734;28;20033;-70
2021/08/27 10:18:09;;;;;;;6.03;1.45;;;20.90;99.90;;;;;;5035967;28;20025;-70
2021/08/27 10:20:39;;;;;;;4.68;1.77;;;21.30;99.90;;;;;;5035738;28;20375;-70
2021/08/27 10:23:08;;;;;;;3.92;1.85;;;21.00;99.90;;;;;;5016890;28;20037;-70
2021/08/27 10:25:35;;;;;;;6.82;2.10;;;22.00;99.90;;;;;;5035263;28;20486;-70
2021/08/27 10:28:01;;;;;;;8.23;1.90;;;21.60;99.90;;;;;;5068048;28;20135;-70
2021/08/27 10:33:45;;;;;;;4.43;2.00;;;20.30;99.90;;;;;;5070795;28;20410;-70
2021/08/27 10:36:31;;;;;;;2.83;1.70;;;19.80;99.90;;;;;;5070531;28;20026;-69
2021/08/27 10:38:59;;;;;;;4.78;1.92;;;19.10;99.90;;;;;;5069515;28;20028;-70
2021/08/27 10:41:39;;;;;;;5.80;1.65;;;18.80;99.90;;;;;;5069228;28;20029;-70
2021/08/27 10:44:09;;;;;;;3.40;1.70;;;18.40;99.90;;;;;;5069759;28;20411;-69
2021/08/27 10:52:33;;;;;;;6.15;1.95;;;17.80;99.90;;;;;;5111275;27;20291;-69
2021/08/27 10:57:51;;;;;;;3.58;1.60;;;17.90;99.90;;;;;;5111748;27;20897;-70
2021/08/27 11:00:36;;;;;;;4.68;1.88;;;18.40;99.90;;;;;;5131472;27;20043;-69
2021/08/27 11:03:03;;;;;;;5.88;2.00;;;18.60;99.90;;;;;;5106204;28;20020;-70
2021/08/27 11:05:34;;;;;;;6.22;1.85;;;18.80;99.90;;;;;;5107832;28;20028;-70
2021/08/27 11:08:02;;;;;;;8.85;3.30;;;19.00;99.90;;;;;;5110939;28;20074;-70
2021/08/27 11:10:27;;;;;;;5.22;2.00;;;19.00;99.90;;;;;;5110025;28;20367;-70
2021/08/27 11:13:00;;;;;;;5.80;1.90;;;18.90;99.90;;;;;;5110152;28;20019;-70
2021/08/27 11:15:30;;;;;;;2.80;1.48;;;18.60;99.90;;;;;;5109137;28;20111;-70
2021/08/27 11:20:54;;;;;;;4.35;1.98;;;18.00;99.90;;;;;;5068856;28;20152;-69
2021/08/27 11:23:20;;;;;;;5.82;2.30;;;17.60;99.90;;;;;;5069893;28;20474;-69
2021/08/27 11:26:01;;;;;;;7.57;2.40;;;16.70;99.90;;;;;;5071007;28;20525;-69
2021/08/27 11:28:28;;;;;;;6.63;2.85;;;16.30;99.90;;;;;;5070137;28;20060;-69
2021/08/27 11:31:11;;;;;;;6.53;2.80;;;16.10;99.90;;;;;;5069106;28;20021;-69
2021/08/27 11:33:48;;;;;;;3.95;2.53;;;16.10;99.90;;;;;;5070440;28;20531;-70
2021/08/27 11:36:17;;;;;;;7.25;2.63;;;16.10;99.90;;;;;;5069838;28;20039;-69
2021/08/27 11:38:43;;;;;;;4.78;2.50;;;16.10;99.90;;;;;;5070243;28;20035;-69
2021/08/27 11:41:10;;;;;;;7.80;3.22;;;16.40;99.90;;;;;;5067743;28;20108;-69
2021/08/27 11:43:44;;;;;;;8.20;2.80;;;16.80;99.90;;;;;;5067040;28;20500;-70
2021/08/27 11:46:19;;;;;;;8.55;2.45;;;17.10;99.90;;;;;;5067924;28;20029;-69
2021/08/27 11:48:51;;;;;;;6.13;2.40;;;17.30;99.90;;;;;;5067534;28;20024;-70
2021/08/27 11:51:26;;;;;;;5.47;3.03;;;17.30;99.90;;;;;;5067572;28;20064;-70
2021/08/27 11:53:52;;;;;;;6.78;2.95;;;17.50;99.90;;;;;;5068299;28;20021;-70
2021/08/27 11:56:25;;;;;;;10.18;2.83;;;18.00;99.90;;;;;;5068948;28;20111;-70
2021/08/27 11:58:51;;;;;;;8.02;2.70;;;18.50;99.90;;;;;;5035417;28;20025;-70
2021/08/27 12:01:26;;;;;;;8.30;2.50;;;18.60;99.90;;;;;;5051599;28;20035;-70
2021/08/27 12:03:51;;;;;;;8.45;3.15;;;18.90;99.90;;;;;;5069640;28;20021;-70
2021/08/27 12:06:21;;;;;;;8.18;2.72;;;19.30;99.90;;;;;;5069648;28;20382;-70
2021/08/27 12:08:48;;;;;;;7.82;2.60;;;19.60;99.90;;;;;;5068300;28;20024;-70
2021/08/27 12:11:15;;;;;;;6.03;2.33;;;19.50;99.90;;;;;;5069577;28;20017;-70
2021/08/27 12:13:51;;;;;;;11.75;3.08;;;19.70;99.90;;;;;;5068362;28;20020;-70
2021/08/27 12:16:17;;;;;;;7.00;2.92;;;19.50;99.90;;;;;;5069270;28;20025;-70
2021/08/27 12:18:42;;;;;;;7.57;2.95;;;19.70;99.90;;;;;;5068477;28;20051;-70
2021/08/27 12:21:17;;;;;;;7.93;3.28;;;19.60;99.90;;;;;;5068943;28;20020;-69
2021/08/27 12:23:42;;;;;;;6.90;2.85;;;19.40;99.90;;;;;;5067563;28;20434;-70
2021/08/27 12:26:22;;;;;;;7.35;3.15;;;19.40;99.90;;;;;;5049512;28;20021;-70
2021/08/27 12:28:47;;;;;;;12.90;3.78;;;18.90;99.90;;;;;;5067249;28;20153;-70
2021/08/27 12:31:13;;;;;;;11.77;4.38;;;17.70;99.90;;;;;;5060536;28;20482;-70
2021/08/27 12:33:39;;;;;;;11.98;4.22;;;16.70;99.90;;;;;;5055313;28;20033;-70
2021/08/27 12:36:06;;;;;;;6.90;3.30;;;16.40;99.90;;;;;;5056296;28;20039;-70
2021/08/27 12:38:32;;;;;;;8.70;4.32;;;16.30;99.90;;;;;;5055844;28;20028;-70
2021/08/27 12:41:19;;;;;;;12.52;3.92;;;16.20;99.90;;;;;;5055496;28;20136;-70
2021/08/27 12:43:45;;;;;;;9.05;3.65;;;16.30;99.90;;;;;;5054882;28;20024;-70
2021/08/27 12:46:27;;;;;;;7.68;3.42;;;16.50;99.90;;;;;;5054539;28;20359;-70
2021/08/27 12:49:19;;;;;;;8.60;3.50;;;16.80;99.90;;;;;;5055749;28;20076;-70
2021/08/27 12:51:48;;;;;;;9.73;4.97;;;17.30;99.90;;;;;;5056146;28;20116;-70
2021/08/27 12:54:14;;;;;;;7.68;3.60;;;18.00;99.90;;;;;;5054140;28;20025;-70
2021/08/27 12:56:40;;;;;;;8.43;3.53;;;18.30;99.90;;;;;;5053439;28;20030;-70
2021/08/27 12:59:15;;;;;;;7.22;3.00;;;18.60;99.90;;;;;;5054673;28;20025;-70
2021/08/27 13:01:41;;;;;;;6.80;2.67;;;18.60;99.90;;;;;;5055176;28;20160;-70